Terminal Aerodrome Forecast
Issued by NWS Wilmington, OH

Current Version | Previous Version | Text Only | Print | Product List | Glossary Off
Versions: 1 2 3 4 5 6 7 8 9 10 11 12 13 14 15 16 17 18 19

000
FTUS41 KILN 310800 AAA
TAFDAY
TAF AMD
KDAY 310831Z 3109/0106 21007KT P6SM -SHRA VCTS OVC040CB
      TEMPO 3109/3111 2SM SHRA BR BKN007
     FM311100 20008KT 4SM -SHRA BR OVC015
     FM311300 19007KT 5SM BR VCSH OVC008
     FM311600 21010KT P6SM BKN018 OVC030
     FM311800 21011KT P6SM VCTS BKN035CB=

USA.gov is the U.S. government's official web portal to all federal, state and local government web resources and services.